Time;durP1;ratioP1;P1;durP2;ratioP2;P2;SDS_P1;SDS_P2;PMS_P1;PMS_P2;Temp;Humidity;BMP_temperature;BMP_pressure;BME280_temperature;BME280_humidity;BME280_pressure;Samples;Min_cycle;Max_cycle;Signal;HPM_P1;HPM_P2
2022/01/26 00:07:47;;;;;;;117.10;55.30;;;;;;;2.18;95.36;103286.22;10456381;28;20057;-53
2022/01/26 00:12:49;;;;;;;121.13;56.58;;;;;;;2.38;94.74;103279.66;10457770;28;20056;-53
2022/01/26 00:17:54;;;;;;;115.50;55.63;;;;;;;2.15;94.07;103263.78;10456554;28;20060;-54
2022/01/26 00:23:33;;;;;;;114.93;54.38;;;;;;;2.16;94.40;103262.06;10456525;28;20481;-57
2022/01/26 00:39:12;;;;;;;124.32;54.63;;;;;;;2.28;94.39;103270.03;10456557;28;20408;-56
2022/01/26 00:44:15;;;;;;;112.00;53.50;;;;;;;2.03;94.32;103264.44;10477078;28;20036;-55
2022/01/26 00:49:20;;;;;;;112.10;52.08;;;;;;;1.85;93.76;103257.22;10455347;28;20076;-51
2022/01/26 00:54:23;;;;;;;114.05;52.17;;;;;;;1.91;94.37;103266.78;10456967;28;20170;-53
2022/01/26 00:59:25;;;;;;;120.30;55.90;;;;;;;2.16;94.57;103254.31;10456523;28;20052;-57
2022/01/26 01:04:28;;;;;;;114.75;53.17;;;;;;;2.32;94.16;103255.44;10457064;28;20076;-56
2022/01/26 01:09:33;;;;;;;127.80;57.95;;;;;;;1.92;96.55;103260.78;10464371;28;20063;-54
2022/01/26 01:14:38;;;;;;;118.20;55.08;;;;;;;1.72;95.37;103247.50;10464228;28;20040;-55
2022/01/26 01:19:48;;;;;;;119.93;55.67;;;;;;;1.74;94.71;103242.38;10464760;28;20068;-54
2022/01/26 01:35:19;;;;;;;127.75;53.72;;;;;;;2.03;96.07;103233.44;10463332;28;20071;-54
2022/01/26 01:40:22;;;;;;;121.90;53.90;;;;;;;1.81;95.18;103234.75;10463647;28;20053;-52
2022/01/26 01:45:35;;;;;;;125.60;56.03;;;;;;;1.99;96.25;103234.22;10462843;28;20486;-54
2022/01/26 01:50:41;;;;;;;122.30;55.55;;;;;;;1.97;96.07;103245.38;10462581;28;20394;-54
2022/01/26 01:55:50;;;;;;;104.15;47.60;;;;;;;1.90;95.76;103239.22;10462745;28;20072;-56
2022/01/26 02:00:52;;;;;;;128.07;54.83;;;;;;;1.90;95.60;103234.06;10470079;28;20052;-54
2022/01/26 02:05:55;;;;;;;113.05;52.22;;;;;;;1.87;95.37;103223.66;10473448;28;20049;-56
2022/01/26 02:10:57;;;;;;;120.13;53.45;;;;;;;1.72;96.19;103211.34;10462025;28;20061;-56
2022/01/26 02:16:13;;;;;;;120.93;54.92;;;;;;;1.96;95.93;103208.31;10461486;28;20049;-55
2022/01/26 02:53:28;;;;;;;122.90;53.38;;;;;;;2.06;94.63;103168.00;10460149;28;20045;-57
2022/01/26 03:03:49;;;;;;;130.57;56.00;;;;;;;2.14;95.35;103168.13;10458798;28;20375;-52
2022/01/26 03:08:59;;;;;;;121.00;52.75;;;;;;;2.20;94.33;103165.63;10459437;28;20419;-54
2022/01/26 03:14:12;;;;;;;128.07;58.25;;;;;;;1.71;95.36;103151.91;10459012;28;20442;-55
2022/01/26 03:19:26;;;;;;;126.03;55.65;;;;;;;2.13;95.79;103162.06;10479195;28;20470;-56
2022/01/26 03:30:01;;;;;;;132.15;54.85;;;;;;;1.84;95.32;103161.63;10457974;28;20045;-50
2022/01/26 03:35:04;;;;;;;123.85;53.47;;;;;;;2.12;95.16;103174.97;10457705;28;20041;-56
2022/01/26 03:40:13;;;;;;;126.35;54.67;;;;;;;2.33;94.43;103164.09;10458329;28;20486;-55
2022/01/26 03:45:16;;;;;;;130.82;55.35;;;;;;;2.20;94.41;103166.50;10458700;28;20045;-56
2022/01/26 03:50:18;;;;;;;123.38;54.90;;;;;;;2.17;94.87;103140.63;10458323;28;20049;-54
2022/01/26 03:55:21;;;;;;;118.63;51.03;;;;;;;2.14;95.25;103145.72;10466117;28;20512;-55
2022/01/26 04:00:23;;;;;;;122.25;55.95;;;;;;;1.94;94.98;103134.22;10468953;28;20443;-55
2022/01/26 04:05:27;;;;;;;122.10;53.20;;;;;;;1.96;95.63;103141.13;10457016;28;20481;-53
2022/01/26 04:15:50;;;;;;;119.72;53.05;;;;;;;1.98;95.28;103154.09;10457171;28;20051;-55
2022/01/26 04:20:56;;;;;;;126.38;57.00;;;;;;;2.01;94.17;103157.59;10456054;28;20052;-54
2022/01/26 04:25:58;;;;;;;127.15;55.38;;;;;;;1.94;94.81;103158.34;10456822;28;20485;-55
2022/01/26 04:31:00;;;;;;;120.90;53.90;;;;;;;2.24;94.98;103149.34;10456553;28;20059;-55
2022/01/26 04:36:07;;;;;;;129.80;58.10;;;;;;;1.95;95.95;103164.38;10476758;28;20067;-53
2022/01/26 04:46:30;;;;;;;124.15;52.53;;;;;;;2.23;97.69;103165.69;10456628;28;20048;-54
2022/01/26 04:51:33;;;;;;;131.35;55.75;;;;;;;2.04;98.43;103160.22;10456158;28;20132;-54
2022/01/26 04:56:35;;;;;;;126.10;55.00;;;;;;;2.07;99.66;103176.59;10456321;28;20045;-52
2022/01/26 05:01:37;;;;;;;141.85;59.10;;;;;;;1.96;98.30;103143.72;10456019;28;20049;-54
2022/01/26 05:06:40;;;;;;;128.35;54.80;;;;;;;1.85;98.84;103140.97;10455830;28;20055;-56
2022/01/26 05:11:45;;;;;;;127.68;54.28;;;;;;;2.16;99.57;103127.66;10456129;28;20060;-55
2022/01/26 05:16:47;;;;;;;132.82;58.10;;;;;;;2.10;99.79;103115.53;10455554;28;20049;-56
2022/01/26 05:21:50;;;;;;;137.13;56.70;;;;;;;1.95;99.47;103102.34;10455156;28;20083;-56
2022/01/26 05:26:53;;;;;;;139.75;59.17;;;;;;;1.82;100.00;103096.16;10456130;28;20053;-54
2022/01/26 05:31:55;;;;;;;133.60;59.17;;;;;;;1.80;100.00;103105.56;10455398;28;20053;-52
2022/01/26 05:36:57;;;;;;;129.63;57.33;;;;;;;2.00;100.00;103109.34;10455354;28;20579;-53
2022/01/26 05:42:04;;;;;;;128.18;55.88;;;;;;;2.24;98.73;103097.63;10455079;28;20404;-55
2022/01/26 05:47:09;;;;;;;133.25;60.40;;;;;;;2.10;98.53;103097.44;10455409;28;20045;-57
2022/01/26 05:52:11;;;;;;;133.32;57.22;;;;;;;1.87;99.62;103081.59;10458669;28;20044;-55
2022/01/26 05:57:14;;;;;;;127.32;56.97;;;;;;;1.74;99.75;103084.81;10462504;28;20048;-53
2022/01/26 06:02:16;;;;;;;131.25;56.63;;;;;;;2.00;99.83;103086.09;10461882;28;20045;-55
2022/01/26 06:07:19;;;;;;;134.77;57.55;;;;;;;2.03;99.28;103091.31;10462127;28;20052;-52
2022/01/26 06:12:21;;;;;;;121.63;52.20;;;;;;;2.04;99.65;103094.75;10462212;28;20056;-52
2022/01/26 06:17:23;;;;;;;127.97;57.60;;;;;;;1.99;99.16;103089.50;10461566;28;20049;-54
2022/01/26 06:22:26;;;;;;;127.78;57.28;;;;;;;2.10;99.63;103106.88;10461500;28;20402;-51
2022/01/26 06:27:28;;;;;;;126.40;57.38;;;;;;;1.87;98.73;103102.25;10461585;28;20053;-54
2022/01/26 06:32:30;;;;;;;125.65;54.72;;;;;;;1.97;99.82;103105.84;10472901;28;20045;-54
2022/01/26 06:37:33;;;;;;;120.10;51.13;;;;;;;1.98;100.00;103118.75;10470757;28;20048;-55
2022/01/26 06:42:49;;;;;;;123.32;54.22;;;;;;;1.90;100.00;103111.75;10460941;28;20053;-53
2022/01/26 06:52:54;;;;;;;138.73;57.10;;;;;;;1.77;100.00;103106.41;10460509;28;20056;-54
2022/01/26 06:57:56;;;;;;;145.70;58.42;;;;;;;1.95;100.00;103107.53;10460055;28;20485;-54
2022/01/26 07:02:59;;;;;;;130.82;54.92;;;;;;;1.80;100.00;103101.28;10459867;28;20413;-55
2022/01/26 07:08:02;;;;;;;151.13;62.58;;;;;;;1.50;100.00;103091.31;10459926;28;20124;-51
2022/01/26 07:13:04;;;;;;;150.05;62.17;;;;;;;1.77;100.00;103111.56;10479954;28;20045;-55
2022/01/26 07:23:34;;;;;;;158.32;63.67;;;;;;;1.62;100.00;103124.22;10459058;28;20398;-51
2022/01/26 07:28:38;;;;;;;160.73;62.15;;;;;;;1.98;100.00;103131.69;10458585;28;20060;-55
2022/01/26 07:33:43;;;;;;;158.77;62.03;;;;;;;1.72;100.00;103112.34;10458417;28;20121;-56
2022/01/26 07:38:49;;;;;;;138.10;54.38;;;;;;;2.11;100.00;103103.47;10458585;28;20055;-52
2022/01/26 07:43:51;;;;;;;158.50;62.88;;;;;;;1.98;100.00;103103.25;10458327;28;20489;-53
2022/01/26 07:48:54;;;;;;;169.10;65.97;;;;;;;1.57;100.00;103131.88;10459255;28;20057;-50
2022/01/26 07:53:57;;;;;;;167.20;64.95;;;;;;;1.78;100.00;103127.91;10462333;28;20052;-54
2022/01/26 07:58:59;;;;;;;160.57;63.28;;;;;;;1.58;100.00;103137.91;10457683;28;20056;-51
2022/01/26 08:04:01;;;;;;;166.38;61.55;;;;;;;1.80;100.00;103140.03;10457475;28;20374;-54
2022/01/26 08:09:04;;;;;;;134.23;56.67;;;;;;;1.80;100.00;103141.72;10457188;28;20481;-56
2022/01/26 08:14:06;;;;;;;135.50;56.25;;;;;;;1.91;100.00;103158.28;10457032;28;20056;-53
2022/01/26 08:19:09;;;;;;;166.15;63.10;;;;;;;1.63;100.00;103152.66;10457277;28;20053;-54
2022/01/26 08:24:14;;;;;;;163.75;64.07;;;;;;;1.66;100.00;103157.88;10456987;28;20049;-56
2022/01/26 08:29:22;;;;;;;163.45;61.83;;;;;;;1.78;100.00;103158.91;10457139;28;20061;-56
2022/01/26 08:34:25;;;;;;;152.45;61.20;;;;;;;1.91;100.00;103150.53;10455892;28;20049;-52
2022/01/26 08:39:27;;;;;;;165.50;65.15;;;;;;;2.00;100.00;103148.09;10456293;28;20493;-52
2022/01/26 08:44:29;;;;;;;150.48;60.53;;;;;;;1.91;100.00;103160.88;10456510;28;20053;-55
2022/01/26 08:49:32;;;;;;;156.75;61.20;;;;;;;2.05;100.00;103168.84;10456926;28;20057;-53
2022/01/26 08:54:34;;;;;;;177.60;65.20;;;;;;;2.00;100.00;103176.53;10454672;28;20051;-54
2022/01/26 08:59:37;;;;;;;151.25;60.88;;;;;;;1.82;100.00;103161.59;10456078;28;20052;-56
2022/01/26 09:04:39;;;;;;;164.05;62.08;;;;;;;1.96;100.00;103164.38;10456163;28;20049;-53
2022/01/26 09:09:44;;;;;;;154.85;60.92;;;;;;;2.06;100.00;103152.50;10476967;28;20055;-54
2022/01/26 09:14:47;;;;;;;166.63;62.22;;;;;;;2.34;100.00;103158.09;10455761;28;20067;-54
2022/01/26 09:19:51;;;;;;;166.38;63.67;;;;;;;2.24;100.00;103164.84;10455862;28;20057;-55
2022/01/26 09:24:53;;;;;;;184.82;70.00;;;;;;;2.38;100.00;103165.91;10455814;28;20045;-58
2022/01/26 09:29:56;;;;;;;162.45;62.28;;;;;;;2.18;100.00;103144.06;10463334;28;20064;-57
2022/01/26 09:34:58;;;;;;;154.88;60.95;;;;;;;2.11;100.00;103139.66;10463171;28;20511;-56
2022/01/26 09:40:01;;;;;;;176.10;66.38;;;;;;;2.06;100.00;103129.22;10462061;28;20052;-56
2022/01/26 09:45:07;;;;;;;149.13;62.00;;;;;;;2.23;100.00;103129.50;10473413;28;20055;-55
2022/01/26 09:50:09;;;;;;;166.30;69.10;;;;;;;2.12;100.00;103133.63;10471454;28;20057;-58
2022/01/26 09:55:12;;;;;;;162.35;63.88;;;;;;;2.11;100.00;103126.72;10462816;28;20049;-57
2022/01/26 10:00:15;;;;;;;160.70;64.55;;;;;;;2.56;100.00;103130.81;10462213;28;20052;-54
2022/01/26 10:05:17;;;;;;;136.43;61.00;;;;;;;2.51;100.00;103133.34;10462434;28;20055;-57
2022/01/26 10:15:33;;;;;;;137.82;58.72;;;;;;;2.77;100.00;103135.38;10462091;28;20045;-56
2022/01/26 10:20:47;;;;;;;151.57;59.83;;;;;;;2.50;100.00;103130.72;10461564;28;20063;-56
2022/01/26 10:26:04;;;;;;;135.93;55.92;;;;;;;2.67;100.00;103159.41;10483119;28;20080;-51
2022/01/26 10:31:14;;;;;;;141.38;59.28;;;;;;;2.59;100.00;103191.22;10462018;28;20053;-53
2022/01/26 10:36:40;;;;;;;127.93;56.22;;;;;;;2.62;100.00;103181.75;10460601;28;20440;-55
2022/01/26 10:41:45;;;;;;;133.23;59.28;;;;;;;2.48;100.00;103177.25;10461711;28;20048;-53
2022/01/26 10:46:47;;;;;;;131.18;59.97;;;;;;;2.46;100.00;103173.78;10459232;28;20056;-54
2022/01/26 10:51:55;;;;;;;112.07;53.50;;;;;;;2.69;100.00;103176.69;10460549;28;20083;-56
2022/01/26 10:56:57;;;;;;;113.50;52.13;;;;;;;2.69;100.00;103163.78;10460022;28;20045;-54
2022/01/26 11:02:05;;;;;;;114.13;52.30;;;;;;;2.85;100.00;103157.06;10459629;28;20041;-56
2022/01/26 11:07:12;;;;;;;119.68;55.25;;;;;;;2.91;100.00;103156.28;10475264;28;20485;-53
2022/01/26 11:12:16;;;;;;;104.43;49.70;;;;;;;2.94;100.00;103149.44;10459969;28;20056;-55
2022/01/26 11:17:28;;;;;;;115.90;53.38;;;;;;;2.81;100.00;103159.59;10458602;28;20091;-55
2022/01/26 11:22:32;;;;;;;108.93;50.38;;;;;;;2.85;100.00;103151.03;10459762;28;20064;-55
2022/01/26 11:27:36;;;;;;;116.38;52.00;;;;;;;2.89;100.00;103158.84;10458754;28;20405;-57
2022/01/26 11:32:53;;;;;;;101.47;46.92;;;;;;;3.05;100.00;103136.59;10458760;28;20053;-57
2022/01/26 11:49:13;;;;;;;101.50;47.90;;;;;;;3.09;100.00;103125.44;10466663;28;20057;-54
2022/01/26 11:54:18;;;;;;;104.03;50.50;;;;;;;2.79;100.00;103119.06;10457674;28;20057;-55
2022/01/26 11:59:21;;;;;;;103.15;48.67;;;;;;;3.32;100.00;103115.31;10457709;28;20520;-53
2022/01/26 12:04:25;;;;;;;97.43;43.80;;;;;;;3.10;100.00;103121.13;10457676;28;20087;-56
2022/01/26 12:09:27;;;;;;;101.05;46.38;;;;;;;3.30;100.00;103105.81;10457414;28;20503;-56
2022/01/26 12:14:32;;;;;;;95.63;43.60;;;;;;;3.43;100.00;103110.25;10457437;28;20055;-55
2022/01/26 12:19:48;;;;;;;87.53;42.15;;;;;;;3.25;100.00;103105.75;10457389;28;20060;-55
2022/01/26 12:36:01;;;;;;;91.82;43.88;;;;;;;3.49;100.00;103096.47;10456750;28;20103;-55
2022/01/26 12:46:28;;;;;;;91.90;43.33;;;;;;;3.45;100.00;103090.41;10456024;28;20051;-55
2022/01/26 12:51:38;;;;;;;82.00;41.38;;;;;;;3.68;100.00;103087.13;10456739;28;20045;-57
2022/01/26 12:56:41;;;;;;;85.03;41.08;;;;;;;3.60;100.00;103081.03;10456345;28;20049;-57
2022/01/26 13:01:46;;;;;;;77.47;37.50;;;;;;;3.46;100.00;103068.84;10461323;28;20060;-56
2022/01/26 13:06:51;;;;;;;85.25;41.90;;;;;;;3.77;100.00;103061.31;10464690;28;20127;-59
2022/01/26 13:11:56;;;;;;;83.88;40.03;;;;;;;3.69;100.00;103066.44;10464432;28;20481;-54
2022/01/26 13:49:03;;;;;;;75.20;38.30;;;;;;;3.65;100.00;103038.78;10463229;28;20052;-58
2022/01/26 14:04:24;;;;;;;76.05;38.55;;;;;;;3.75;100.00;103044.91;10462905;28;20128;-53
2022/01/26 14:09:27;;;;;;;75.22;39.70;;;;;;;3.61;100.00;103039.59;10462197;28;20056;-57
2022/01/26 14:14:34;;;;;;;80.65;42.13;;;;;;;3.60;100.00;103029.22;10461128;28;20392;-54
2022/01/26 14:25:24;;;;;;;84.45;43.53;;;;;;;3.70;100.00;103034.50;10480162;28;20051;-56
2022/01/26 14:30:36;;;;;;;83.25;40.45;;;;;;;3.62;100.00;103032.72;10459622;28;20060;-57
2022/01/26 14:35:56;;;;;;;79.43;41.20;;;;;;;3.71;100.00;103018.06;10460714;28;20437;-57
2022/01/26 15:34:17;;;;;;;86.28;42.75;;;;;;;3.49;100.00;103005.84;10459472;28;20060;-57
2022/01/26 15:48:43;;;;;;;81.25;40.63;;;;;;;3.46;100.00;103001.50;10458576;28;20056;-57
2022/01/26 16:38:00;;;;;;;91.00;48.30;;;;;;;3.43;100.00;102982.47;10456897;28;20052;-56
2022/01/26 18:51:06;;;;;;;102.17;48.40;;;;;;;3.04;100.00;102947.66;10460174;28;20099;-56
2022/01/26 18:56:08;;;;;;;99.40;49.65;;;;;;;3.02;100.00;102939.88;10476743;28;20407;-56
2022/01/26 19:01:11;;;;;;;101.72;46.90;;;;;;;3.11;100.00;102939.97;10459703;28;20390;-55
2022/01/26 19:06:14;;;;;;;89.88;42.90;;;;;;;2.96;100.00;102932.06;10460212;28;20045;-57
2022/01/26 19:11:19;;;;;;;97.88;46.85;;;;;;;2.98;100.00;102938.13;10460030;28;20053;-56
2022/01/26 19:16:35;;;;;;;93.20;46.30;;;;;;;3.08;100.00;102915.78;10460216;28;20045;-56
2022/01/26 19:26:46;;;;;;;86.45;42.75;;;;;;;3.06;100.00;102914.88;10459577;28;20044;-56
2022/01/26 19:52:50;;;;;;;102.18;44.65;;;;;;;3.02;100.00;102879.47;10458405;28;20059;-54
2022/01/26 19:57:53;;;;;;;88.78;42.05;;;;;;;3.09;100.00;102870.91;10457806;28;20057;-55
2022/01/26 20:02:57;;;;;;;97.13;46.15;;;;;;;3.05;100.00;102863.97;10456694;28;20044;-55
2022/01/26 20:08:08;;;;;;;87.57;39.85;;;;;;;2.95;100.00;102861.31;10457716;28;20270;-56
2022/01/26 20:13:24;;;;;;;96.25;46.45;;;;;;;3.01;100.00;102851.84;10470409;28;20041;-55
2022/01/26 20:18:26;;;;;;;79.47;38.42;;;;;;;3.03;100.00;102821.69;10457398;28;20477;-55
2022/01/26 20:23:35;;;;;;;92.25;42.15;;;;;;;2.94;100.00;102819.91;10456911;28;20406;-56
2022/01/26 20:28:40;;;;;;;86.55;40.67;;;;;;;2.91;100.00;102815.59;10457191;28;20041;-56
2022/01/26 20:33:42;;;;;;;85.75;40.55;;;;;;;2.85;100.00;102812.09;10457366;28;20076;-57
2022/01/26 20:38:45;;;;;;;94.88;40.55;;;;;;;2.93;100.00;102813.88;10456895;28;20049;-56
2022/01/26 20:43:47;;;;;;;77.78;36.65;;;;;;;2.93;100.00;102813.88;10457379;28;20055;-55
2022/01/26 20:48:50;;;;;;;87.22;39.53;;;;;;;2.97;100.00;102804.41;10475944;28;20041;-54
2022/01/26 20:53:52;;;;;;;100.75;40.10;;;;;;;3.13;100.00;102805.38;10457948;28;20045;-53
2022/01/26 20:58:54;;;;;;;92.70;41.78;;;;;;;2.87;100.00;102808.63;10456523;28;20060;-55
2022/01/26 21:03:57;;;;;;;83.10;38.33;;;;;;;2.95;100.00;102801.78;10455969;28;20057;-56
2022/01/26 21:08:59;;;;;;;84.38;39.72;;;;;;;2.92;100.00;102809.53;10455045;28;20393;-56
2022/01/26 21:14:02;;;;;;;88.00;40.45;;;;;;;2.95;100.00;102806.13;10456212;28;20576;-56
2022/01/26 21:19:06;;;;;;;79.90;38.45;;;;;;;3.16;100.00;102785.53;10456008;28;20053;-58
2022/01/26 21:24:08;;;;;;;82.25;38.60;;;;;;;3.11;100.00;102778.59;10463091;28;20053;-56
2022/01/26 21:29:11;;;;;;;83.25;41.65;;;;;;;3.14;100.00;102783.78;10483967;28;20136;-58
2022/01/26 21:34:14;;;;;;;90.45;42.08;;;;;;;3.02;100.00;102796.66;10464067;28;20065;-53
2022/01/26 21:39:16;;;;;;;69.97;33.58;;;;;;;3.06;100.00;102790.63;10463537;28;20045;-56
2022/01/26 21:44:19;;;;;;;87.45;39.95;;;;;;;3.02;100.00;102783.72;10463899;28;20053;-58
2022/01/26 21:49:22;;;;;;;82.03;36.30;;;;;;;3.04;100.00;102794.94;10462917;28;20084;-55
2022/01/26 21:54:25;;;;;;;77.97;35.15;;;;;;;2.93;100.00;102792.31;10461573;28;20056;-55
2022/01/26 21:59:27;;;;;;;81.28;38.08;;;;;;;2.96;100.00;102790.59;10462551;28;20103;-58
2022/01/26 22:04:30;;;;;;;85.55;37.65;;;;;;;3.00;100.00;102795.81;10462601;28;20482;-58
2022/01/26 22:09:33;;;;;;;70.80;33.83;;;;;;;3.06;100.00;102798.41;10483730;28;20049;-56
2022/01/26 22:14:35;;;;;;;77.97;38.78;;;;;;;3.13;100.00;102790.69;10462119;28;20409;-56
2022/01/26 22:19:38;;;;;;;79.07;34.83;;;;;;;3.17;100.00;102789.84;10460477;28;20409;-57
2022/01/26 22:24:41;;;;;;;73.20;38.63;;;;;;;3.16;100.00;102785.53;10461678;28;20049;-55
2022/01/26 22:29:45;;;;;;;75.57;36.72;;;;;;;3.06;100.00;102775.13;10461535;28;20512;-55
2022/01/26 22:34:47;;;;;;;68.63;33.58;;;;;;;3.10;100.00;102759.63;10460797;28;20048;-55
2022/01/26 22:40:00;;;;;;;67.10;34.55;;;;;;;3.10;100.00;102766.53;10461102;28;20073;-56
2022/01/26 22:45:09;;;;;;;70.15;34.35;;;;;;;3.18;100.00;102757.06;10463079;28;20045;-58
2022/01/26 22:50:12;;;;;;;67.93;33.40;;;;;;;3.10;100.00;102758.75;10459536;28;20544;-57
2022/01/26 22:55:15;;;;;;;64.05;34.28;;;;;;;3.17;100.00;102771.72;10460908;28;20511;-58
2022/01/26 23:00:47;;;;;;;63.50;35.22;;;;;;;3.20;100.00;102773.47;10460466;28;20048;-55
2022/01/26 23:11:05;;;;;;;67.28;36.80;;;;;;;3.24;100.00;102744.16;10460089;28;20076;-55
2022/01/26 23:16:08;;;;;;;74.85;39.85;;;;;;;3.24;100.00;102751.06;10459344;28;20148;-56
2022/01/26 23:21:11;;;;;;;67.35;37.95;;;;;;;3.22;100.00;102745.88;10460306;28;20513;-53
2022/01/26 23:42:27;;;;;;;60.90;33.67;;;;;;;3.20;100.00;102705.31;10458940;28;20045;-54
